Flight Track Log - Related Links

Times and Time Zones

All times are in EDT time to prevent confusion due to time zone crossing. See the CTL18 flight status page for this flight to view local times or setup timezone preferences in your user account.

Time Position Orientation Groundspeed Altitude Reporting Facility
EDT Latitude Longitude Course Direction KTS MPH feet Rate Location/Type
Tue 09:47:37 PM 42.2239 -83.5497 229° Southwest 106 122 1,200  Level Cleveland Center
Tue 09:49:09 PM 42.1936 -83.5961 229° Southwest 107 123 2,600 735 Climbing Cleveland Center
Tue 09:50:04 PM 42.1639 -83.6086 197° South 141 162 3,000 261 Climbing Cleveland Center
Tue 09:51:04 PM 42.1181 -83.6094 181° South 172 198 3,100 50 Climbing Cleveland Center
Tue 09:52:05 PM 42.0686 -83.5903 164° South 173 199 3,100  Level Cleveland Center
Tue 09:53:06 PM 42.0233 -83.5683 160° South 177 204 3,100 393 Level Cleveland Center
Tue 09:54:07 PM 41.9800 -83.5469 160° South 137 158 3,900 639 Climbing Cleveland Center
Tue 09:55:08 PM 41.9517 -83.5119 137° Southeast 161 185 4,400 541 Climbing Cleveland Center
Tue 09:56:09 PM 41.9364 -83.4556 110° East 162 186 5,000 298 Climbing Cleveland Center
Tue 09:57:09 PM 41.9194 -83.3906 109° East 184 212 5,000  Level Cleveland Center
Tue 09:58:04 PM 41.9083 -83.3314 104° East 183 211 5,000 52 Level Cleveland Center
Tue 09:59:05 PM 41.8889 -83.2664 112° Southeast 181 208 5,100  Climbing Cleveland Center
Tue 10:00:06 PM 41.8739 -83.1989 107° East 183 211 5,000  Descending Cleveland Center
Tue 10:01:01 PM 41.8628 -83.1400 104° East 177 204 5,100  Climbing Cleveland Center
Tue 10:02:02 PM 41.8453 -83.0750 110° East 181 208 5,000 -50 Descending Cleveland Center
Tue 10:03:02 PM 41.8297 -83.0189 110° East 178 205 5,000 47 Level Cleveland Center
Tue 10:04:09 PM 41.8106 -82.9483 110° East 177 204 5,100 47 Climbing Cleveland Center
Tue 10:05:10 PM 41.7953 -82.8808 107° East 181 208 5,100  Level Cleveland Center
Tue 10:06:04 PM 41.7817 -82.8275 109° East 180 207 5,100  Level Cleveland Center
Tue 10:07:05 PM 41.7664 -82.7575 106° East 181 208 5,100  Level Cleveland Center
Tue 10:08:05 PM 41.7528 -82.6931 106° East 181 208 5,100  Level Cleveland Center
Tue 10:09:06 PM 41.7394 -82.6283 105° East 179 206 5,100  Level Cleveland Center
Tue 10:10:01 PM 41.7217 -82.5694 112° Southeast 179 206 5,100 50 Level Cleveland Center
Tue 10:11:07 PM 41.7083 -82.5022 105° East 178 205 5,200  Climbing Cleveland Center
Tue 10:12:08 PM 41.6947 -82.4381 106° East 180 207 5,100 -47 Descending Cleveland Center
Tue 10:13:15 PM 41.6750 -82.3706 111° Southeast 177 204 5,100 -198 Level Cleveland Center
Tue 10:14:09 PM 41.6614 -82.3147 108° East 181 208 4,700 -365 Descending Cleveland Center
Tue 10:15:10 PM 41.6519 -82.2394 100° East 190 219 4,400 -344 Descending Cleveland Center
Tue 10:16:11 PM 41.6364 -82.1694 107° East 191 220 4,000 -446 Descending Cleveland Center
Tue 10:17:11 PM 41.6225 -82.1025 105° East 194 223 3,500 -470 Descending Cleveland Center
Tue 10:18:06 PM 41.6067 -82.0383 108° East 193 222 3,100 -496 Descending Cleveland Center
Tue 10:19:12 PM 41.5889 -81.9658 108° East 187 215 2,500 -378 Descending Cleveland Center
Tue 10:20:13 PM 41.5772 -81.9017 104° East 179 206 2,300 -246 Descending Cleveland Center
Tue 10:21:14 PM 41.5633 -81.8403 107° East 170 196 2,000 -397 Descending Cleveland Center
Tue 10:22:14 PM 41.5472 -81.7761 109° East 174 200 1,500 -378 Descending Cleveland Center
Tue 10:23:21 PM 41.5394 -81.7178 100° East 125 144 1,200 -269 Descending Cleveland Center

Login

Don't have an account? Register now (free) for customized features, flight alerts, and more!